M I D A S
Marine Information and Data Acquisition System
Tripno 2002 of the Zeeleeuw from 2010-12-20 08:39:17 to 2010-12-20 16:13:24
Back to CruiseResearch ActivitiesStationsMapUnderway DataData graphs

EquipmentUnitsComment
TimeDGPSUTC
LatitudeDGPSDM.mWGS84
LongitudeDGPSDM.mWGS84
HeadingGyrodeg 
SOGDGPSknotsSpeed over ground
COGDGPSdegCourse over ground
DepthEcho soundermeters200 kHz
Missing or incorrect values are displayed as -999
Navigation data collected by the RV Zeeleeuw from 2010-12-20 08:33:48 to 2010-12-20 16:21:29
                                                                                    Next 1000 lines
Time Latitude Longitude Heading SOG COG Depth
2010-12-20 08:33:57 51°13.664 2°55.961 126 0.1 249 8.1
2010-12-20 08:34:02 51°13.664 2°55.961 126.8 0.1 265 8.2
2010-12-20 08:34:07 51°13.664 2°55.961 127.2 -999 216 8.1
2010-12-20 08:34:12 51°13.664 2°55.961 127.3 0.1 105 8.1
2010-12-20 08:34:17 51°13.664 2°55.961 127.1 0.1 79 8.1
2010-12-20 08:34:22 51°13.664 2°55.961 127 -999 12 8.1
2010-12-20 08:34:27 51°13.664 2°55.961 126.9 0.1 352 8.2
2010-12-20 08:34:32 51°13.664 2°55.961 126.7 -999 338 8.1
2010-12-20 08:34:37 51°13.664 2°55.961 126.7 -999 195 8.1
2010-12-20 08:34:42 51°13.664 2°55.96 126.7 -999 201 8.1
2010-12-20 08:34:47 51°13.664 2°55.961 126.9 0.1 205 6
2010-12-20 08:34:52 51°13.664 2°55.961 127 -999 290 8.1
2010-12-20 08:34:57 51°13.664 2°55.961 127.1 -999 315 8.2
2010-12-20 08:35:01 51°13.664 2°55.961 127.1 -999 325 8.1
2010-12-20 08:35:06 51°13.664 2°55.961 127.1 -999 37 8.1
2010-12-20 08:35:12 51°13.664 2°55.961 127.1 -999 106 8.1
2010-12-20 08:35:17 51°13.664 2°55.961 127.1 -999 72 8.2
2010-12-20 08:35:21 51°13.664 2°55.961 127.1 -999 22 6
2010-12-20 08:35:26 51°13.664 2°55.961 127.1 -999 323 8.2
2010-12-20 08:35:32 51°13.663 2°55.961 127.1 -999 323 8.2
2010-12-20 08:35:37 51°13.663 2°55.961 127.1 -999 339 8.2
2010-12-20 08:35:42 51°13.663 2°55.961 127.2 -999 197 8.2
2010-12-20 08:35:47 51°13.663 2°55.961 127.2 -999 341 8.2
2010-12-20 08:35:52 51°13.663 2°55.961 127.2 -999 313 8.2
2010-12-20 08:35:57 51°13.663 2°55.961 127.2 -999 122 8.2
2010-12-20 08:36:02 51°13.663 2°55.96 127.2 -999 193 8.2
2010-12-20 08:36:07 51°13.663 2°55.96 127.2 -999 335 6
2010-12-20 08:36:12 51°13.662 2°55.96 127.2 0.1 180 8.2
2010-12-20 08:36:17 51°13.662 2°55.96 127.2 -999 162 8.2
2010-12-20 08:36:22 51°13.66 2°55.959 127.2 -999 209 8.2
2010-12-20 08:36:27 51°13.661 2°55.959 127.2 -999 245 8.2
2010-12-20 08:36:32 51°13.661 2°55.959 127.2 0.1 12 8.2
2010-12-20 08:36:37 51°13.66 2°55.959 127.2 -999 333 6
2010-12-20 08:36:42 51°13.659 2°55.958 127.2 -999 287 8.2
2010-12-20 08:36:47 51°13.66 2°55.958 127.2 -999 352 8.2
2010-12-20 08:36:52 51°13.66 2°55.959 127.2 -999 39 8.2
2010-12-20 08:36:57 51°13.66 2°55.959 127.2 0.1 196 8.2
2010-12-20 08:37:02 51°13.661 2°55.959 127.2 0.1 202 8.2
2010-12-20 08:37:07 51°13.661 2°55.96 127.2 0.1 193 8.2
2010-12-20 08:37:12 51°13.662 2°55.96 127.2 -999 193 8.2
2010-12-20 08:37:17 51°13.663 2°55.96 127.2 0.1 230 8.2
2010-12-20 08:37:22 51°13.663 2°55.961 127.2 -999 293 8.2
2010-12-20 08:37:27 51°13.664 2°55.961 127.2 -999 78 8.2
2010-12-20 08:37:32 51°13.664 2°55.961 127.2 -999 357 8.2
2010-12-20 08:37:37 51°13.664 2°55.961 127.2 0.1 2 8.2
2010-12-20 08:37:42 51°13.664 2°55.961 127.2 -999 343 8.2
2010-12-20 08:37:47 51°13.664 2°55.961 127.2 -999 157 8.2
2010-12-20 08:37:52 51°13.664 2°55.961 127.2 0.1 193 8.2
2010-12-20 08:37:57 51°13.664 2°55.961 127.2 -999 160 8.2
2010-12-20 08:38:02 51°13.663 2°55.961 127.2 0.1 156 8.2
2010-12-20 08:38:07 51°13.663 2°55.961 127.2 -999 163 8.2
2010-12-20 08:38:12 51°13.663 2°55.96 127.2 -999 341 -999
2010-12-20 08:38:18 51°13.662 2°55.96 127.2 -999 20 8.3
2010-12-20 08:38:23 51°13.663 2°55.96 127.2 -999 60 8.3
2010-12-20 08:38:27 51°13.663 2°55.961 127.1 -999 54 8.3
2010-12-20 08:38:32 51°13.664 2°55.961 127 -999 82 8.2
2010-12-20 08:38:37 51°13.664 2°55.961 126.9 -999 97 8.2
2010-12-20 08:38:42 51°13.663 2°55.961 126.6 0.1 187 8.2
2010-12-20 08:38:47 51°13.663 2°55.961 126.6 0.1 190 6
2010-12-20 08:38:52 51°13.663 2°55.961 126.6 -999 314 8.2
2010-12-20 08:38:57 51°13.664 2°55.961 126.6 -999 90 8.2
2010-12-20 08:39:02 51°13.664 2°55.961 126.6 -999 135 8.2
2010-12-20 08:39:07 51°13.663 2°55.961 126.6 0.1 185 8.2
2010-12-20 08:39:11 51°13.664 2°55.961 126.6 -999 133 8.2
2010-12-20 08:39:17 51°13.664 2°55.961 126.6 -999 108 8.3
2010-12-20 08:39:22 51°13.664 2°55.962 126.5 0.1 105 8.2
2010-12-20 08:39:27 51°13.664 2°55.962 126.1 0.1 123 8.3
2010-12-20 08:39:31 51°13.664 2°55.962 125.2 0.1 140 8.1
2010-12-20 08:39:37 51°13.664 2°55.962 124.2 -999 322 8.1
2010-12-20 08:39:42 51°13.663 2°55.962 123.3 -999 327 8.2
2010-12-20 08:39:47 51°13.663 2°55.961 122.6 -999 183 8.2
2010-12-20 08:39:52 51°13.663 2°55.961 121.6 0.1 199 8.2
2010-12-20 08:39:57 51°13.663 2°55.962 120.5 0.1 179 8.3
2010-12-20 08:40:02 51°13.663 2°55.962 119.4 0.1 185 8.2
2010-12-20 08:40:07 51°13.663 2°55.961 118.1 0.1 211 8.3
2010-12-20 08:40:11 51°13.663 2°55.961 116.9 0.1 202 -999
2010-12-20 08:40:17 51°13.662 2°55.961 115.8 0.2 195 8.2
2010-12-20 08:40:22 51°13.662 2°55.961 114.6 0.1 205 8.3
2010-12-20 08:40:27 51°13.662 2°55.961 113.4 0.2 191 8.3
2010-12-20 08:40:32 51°13.662 2°55.961 112.2 0.1 202 8.3
2010-12-20 08:40:37 51°13.662 2°55.961 110.9 0.1 218 8.3
2010-12-20 08:40:42 51°13.662 2°55.961 109.7 0.1 298 8.3
2010-12-20 08:40:47 51°13.662 2°55.96 108.6 0.1 279 8.3
2010-12-20 08:40:52 51°13.662 2°55.959 107.9 0.3 274 8.4
2010-12-20 08:40:57 51°13.662 2°55.958 107.3 0.4 274 8.3
2010-12-20 08:41:02 51°13.662 2°55.957 106.8 0.6 288 8.5
2010-12-20 08:41:07 51°13.662 2°55.955 106.5 0.8 289 8.3
2010-12-20 08:41:12 51°13.663 2°55.953 106.2 1 291 8.2
2010-12-20 08:41:17 51°13.664 2°55.95 106.2 1.2 292 8.2
2010-12-20 08:41:22 51°13.665 2°55.947 106.2 1.5 293 8.2
2010-12-20 08:41:27 51°13.666 2°55.943 106.2 1.7 293 6.6
2010-12-20 08:41:33 51°13.667 2°55.939 106.1 1.8 291 -999
2010-12-20 08:41:39 51°13.668 2°55.934 105.7 2 290 -999
2010-12-20 08:41:44 51°13.669 2°55.929 105.2 2.2 294 -999
2010-12-20 08:41:50 51°13.67 2°55.924 104.2 2.2 289 -999
2010-12-20 08:41:55 51°13.673 2°55.92 103.3 2.4 292 -999
2010-12-20 08:42:01 51°13.673 2°55.913 102.4 2.5 289 -999
2010-12-20 08:42:06 51°13.675 2°55.908 101.1 2.6 285 -999
2010-12-20 08:42:11 51°13.676 2°55.902 100.2 2.7 285 -999
2010-12-20 08:42:16 51°13.677 2°55.896 99.4 2.8 284 -999
2010-12-20 08:42:21 51°13.678 2°55.89 98.6 2.8 284 -999
2010-12-20 08:42:26 51°13.678 2°55.883 97.7 2.9 283 -999
2010-12-20 08:42:31 51°13.679 2°55.877 97 3 283 -999
2010-12-20 08:42:35 51°13.679 2°55.871 96.2 3 280 -999
2010-12-20 08:42:41 51°13.68 2°55.863 95.4 3.1 279 -999
2010-12-20 08:42:46 51°13.68 2°55.856 95.1 3.1 279 -999
2010-12-20 08:42:51 51°13.681 2°55.848 94.4 3.2 278 -999
2010-12-20 08:42:55 51°13.681 2°55.843 94.1 3.2 276 -999
2010-12-20 08:43:01 51°13.682 2°55.834 93.8 3.3 276 -999
2010-12-20 08:43:06 51°13.683 2°55.827 93.2 3.3 277 -999
2010-12-20 08:43:11 51°13.684 2°55.82 92.8 3.3 276 -999
2010-12-20 08:43:15 51°13.684 2°55.814 92.3 3.2 276 -999
2010-12-20 08:43:21 51°13.684 2°55.806 91.8 3.2 277 -999
2010-12-20 08:43:26 51°13.685 2°55.799 91.3 3.1 277 -999
2010-12-20 08:43:31 51°13.685 2°55.792 90.5 3.1 276 -999
2010-12-20 08:43:36 51°13.685 2°55.785 90 3 276 -999
2010-12-20 08:43:40 51°13.686 2°55.781 89.4 2.9 276 -999
2010-12-20 08:43:46 51°13.686 2°55.773 88.8 2.8 275 -999
2010-12-20 08:43:51 51°13.686 2°55.767 88.1 2.7 275 -999
2010-12-20 08:43:55 51°13.686 2°55.763 87.3 2.6 276 13.7
2010-12-20 08:44:00 51°13.687 2°55.758 86.7 2.2 276 13.6
2010-12-20 08:44:05 51°13.687 2°55.754 85.9 1.9 274 13.3
2010-12-20 08:44:10 51°13.687 2°55.75 84.5 1.5 277 13.1
2010-12-20 08:44:15 51°13.688 2°55.748 81.5 1.2 278 13.1
2010-12-20 08:44:19 51°13.689 2°55.747 79.4 0.8 292 13.3
2010-12-20 08:44:24 51°13.689 2°55.746 76 0.5 315 13.5
2010-12-20 08:44:29 51°13.689 2°55.746 72.3 0.5 351 13.4
2010-12-20 08:44:34 51°13.689 2°55.746 67.7 0.5 11 13.5
2010-12-20 08:44:39 51°13.691 2°55.747 63.2 0.7 19 13.7
2010-12-20 08:44:44 51°13.692 2°55.748 58.7 0.7 32 13.9
2010-12-20 08:44:48 51°13.693 2°55.749 54.4 1 29 13.9
2010-12-20 08:44:53 51°13.694 2°55.75 49.8 1.1 30 14.1
2010-12-20 08:44:59 51°13.696 2°55.751 45.2 1.1 31 14.1
2010-12-20 08:45:03 51°13.697 2°55.752 39.6 1.1 25 14.2
2010-12-20 08:45:08 51°13.698 2°55.753 36.4 1 22 14.3
2010-12-20 08:45:13 51°13.699 2°55.754 32.7 0.8 20 14.3
2010-12-20 08:45:18 51°13.7 2°55.753 29.8 0.5 13 14.3
2010-12-20 08:45:23 51°13.7 2°55.753 26.8 0.3 353 -999
2010-12-20 08:45:29 51°13.701 2°55.753 23.8 0.2 296 14.3
2010-12-20 08:45:34 51°13.7 2°55.752 21 0.4 225 -999
2010-12-20 08:45:39 51°13.699 2°55.751 19.2 0.7 215 14.3
2010-12-20 08:45:43 51°13.698 2°55.75 17.3 0.7 212 14.1
2010-12-20 08:45:49 51°13.697 2°55.749 15.8 0.7 214 14.1
2010-12-20 08:45:54 51°13.696 2°55.749 14 0.6 211 14
2010-12-20 08:45:58 51°13.695 2°55.748 12.4 0.6 215 13.9
2010-12-20 08:46:03 51°13.695 2°55.748 11 0.3 227 13.9
2010-12-20 08:46:08 51°13.695 2°55.747 9 0.2 265 13.9
2010-12-20 08:46:13 51°13.695 2°55.747 6.4 0.3 323 4.7
2010-12-20 08:46:18 51°13.696 2°55.747 3.1 0.6 344 4.8
2010-12-20 08:46:23 51°13.698 2°55.746 359.3 0.9 351 4.9
2010-12-20 08:46:27 51°13.699 2°55.746 354.5 1.2 346 13.9
2010-12-20 08:46:32 51°13.701 2°55.745 350.6 1.6 347 13.6
2010-12-20 08:46:37 51°13.704 2°55.744 347.3 1.9 344 13.9
2010-12-20 08:46:42 51°13.707 2°55.742 344.5 2.2 344 14
2010-12-20 08:46:47 51°13.71 2°55.74 341.9 2.4 340 14.1
2010-12-20 08:46:51 51°13.713 2°55.739 339.6 2.8 339 14.2
2010-12-20 08:46:57 51°13.718 2°55.736 337.2 3 336 14.1
2010-12-20 08:47:02 51°13.722 2°55.732 335.2 3.4 335 13.9
2010-12-20 08:47:07 51°13.727 2°55.728 333.2 3.6 333 13.8
2010-12-20 08:47:12 51°13.731 2°55.724 331.6 3.9 332 13.5
2010-12-20 08:47:17 51°13.737 2°55.72 329.9 4.1 330 13
2010-12-20 08:47:22 51°13.743 2°55.716 328.9 4.5 330 12.6
2010-12-20 08:47:27 51°13.749 2°55.71 328.2 4.7 329 12.3
2010-12-20 08:47:32 51°13.755 2°55.704 327.7 4.9 328 12
2010-12-20 08:47:37 51°13.761 2°55.698 327.4 5.3 327 11.8
2010-12-20 08:47:42 51°13.767 2°55.691 327.1 5.6 327 11.4
2010-12-20 08:47:47 51°13.774 2°55.684 326.5 5.7 326 11.3
2010-12-20 08:47:52 51°13.781 2°55.677 326.4 5.9 327 11.3
2010-12-20 08:47:57 51°13.788 2°55.67 327 6.2 329 11.3
2010-12-20 08:48:02 51°13.796 2°55.663 328.3 6.4 330 11.3
2010-12-20 08:48:07 51°13.804 2°55.656 329.9 6.5 331 11.4
2010-12-20 08:48:12 51°13.812 2°55.649 330.6 6.7 331 11.3
2010-12-20 08:48:17 51°13.82 2°55.641 330.5 6.8 331 11.2
2010-12-20 08:48:22 51°13.828 2°55.634 330.4 6.9 332 11.3
2010-12-20 08:48:27 51°13.837 2°55.627 331.1 7 332 11.2
2010-12-20 08:48:31 51°13.844 2°55.621 332.3 7.1 334 11.2
2010-12-20 08:48:37 51°13.854 2°55.612 333.1 7.2 334 11
2010-12-20 08:48:42 51°13.864 2°55.605 333.6 7.3 334 11
2010-12-20 08:48:47 51°13.873 2°55.598 334 7.4 334 11
2010-12-20 08:48:52 51°13.883 2°55.591 334.4 7.6 335 11.6
2010-12-20 08:48:57 51°13.893 2°55.584 334.8 7.7 336 11.7
2010-12-20 08:49:03 51°13.904 2°55.576 335.3 7.7 336 -999
2010-12-20 08:49:08 51°13.914 2°55.569 335.4 7.9 336 -999
2010-12-20 08:49:13 51°13.924 2°55.562 335.2 7.9 336 -999
2010-12-20 08:49:19 51°13.936 2°55.554 335.3 7.9 336 -999
2010-12-20 08:49:24 51°13.947 2°55.547 335.4 7.9 336 -999
2010-12-20 08:49:30 51°13.958 2°55.538 335.3 8 336 -999
2010-12-20 08:49:35 51°13.969 2°55.531 335.1 8 336 -999
2010-12-20 08:49:40 51°13.979 2°55.524 335.4 8 337 -999
2010-12-20 08:49:46 51°13.991 2°55.515 335.7 8 337 11.7
2010-12-20 08:49:51 51°14.001 2°55.508 335.7 8.1 336 -999
2010-12-20 08:49:55 51°14.009 2°55.502 335 8.1 335 -999
2010-12-20 08:50:00 51°14.019 2°55.494 334.7 8.1 336 -999
2010-12-20 08:50:06 51°14.032 2°55.486 334.7 8.1 335 -999
2010-12-20 08:50:11 51°14.042 2°55.479 334.6 8 335 -999
2010-12-20 08:50:15 51°14.051 2°55.473 334.4 8 335 -999
2010-12-20 08:50:20 51°14.061 2°55.465 334.4 8.1 335 -999
2010-12-20 08:50:26 51°14.074 2°55.456 334.3 8.1 335 -999
2010-12-20 08:50:31 51°14.084 2°55.449 334.7 8.1 336 -999
2010-12-20 08:50:36 51°14.094 2°55.441 334.8 8.1 335 -999
2010-12-20 08:50:41 51°14.104 2°55.433 334.6 8.1 335 -999
2010-12-20 08:50:46 51°14.114 2°55.425 334.3 8.2 335 -999
2010-12-20 08:50:51 51°14.124 2°55.418 334.5 8.2 335 -999
2010-12-20 08:50:56 51°14.134 2°55.41 334.6 8.1 335 -999
2010-12-20 08:51:01 51°14.144 2°55.403 334.7 8.1 336 -999
2010-12-20 08:51:06 51°14.154 2°55.396 334.7 8 335 -999
2010-12-20 08:51:11 51°14.165 2°55.388 334.8 8.1 336 -999
2010-12-20 08:51:15 51°14.173 2°55.382 334.8 8 335 -999
2010-12-20 08:51:21 51°14.185 2°55.374 334.9 8 336 -999
2010-12-20 08:51:26 51°14.196 2°55.366 334.8 8.1 335 -999
2010-12-20 08:51:31 51°14.206 2°55.359 334.4 8.2 335 -999
2010-12-20 08:51:35 51°14.214 2°55.352 334.2 8.4 335 -999
2010-12-20 08:51:41 51°14.227 2°55.342 333.9 8.6 334 -999
2010-12-20 08:51:46 51°14.238 2°55.333 333.6 9 334 -999
2010-12-20 08:51:51 51°14.25 2°55.324 333.7 9.1 334 -999
2010-12-20 08:51:55 51°14.259 2°55.316 332.5 9.3 333 11.7
2010-12-20 08:52:00 51°14.271 2°55.306 330.9 9.5 330 11.7
2010-12-20 08:52:06 51°14.285 2°55.293 329.6 9.6 329 -999
2010-12-20 08:52:11 51°14.296 2°55.281 327.7 9.8 328 -999
2010-12-20 08:52:15 51°14.305 2°55.271 326 9.9 327 -999
2010-12-20 08:52:20 51°14.317 2°55.259 324.8 10 325 -999
2010-12-20 08:52:26 51°14.33 2°55.243 323.7 10.1 325 -999
2010-12-20 08:52:30 51°14.339 2°55.232 323.1 10.1 324 11.4
2010-12-20 08:52:35 51°14.351 2°55.219 323.1 10.2 325 -999
2010-12-20 08:52:40 51°14.362 2°55.206 323.2 10.2 324 11.7
2010-12-20 08:52:45 51°14.374 2°55.193 323.1 10.2 323 11.8
2010-12-20 08:52:51 51°14.387 2°55.176 322.3 10.3 322 11.8
2010-12-20 08:52:55 51°14.396 2°55.164 320.9 10.3 321 11.9
2010-12-20 08:53:00 51°14.407 2°55.15 319.9 10.3 321 11.8
2010-12-20 08:53:06 51°14.421 2°55.133 320.1 10.4 322 -999
2010-12-20 08:53:11 51°14.433 2°55.119 321.4 10.4 323 -999
2010-12-20 08:53:15 51°14.442 2°55.109 322.6 10.4 324 11.8
2010-12-20 08:53:20 51°14.454 2°55.095 323.1 10.5 325 11.9
2010-12-20 08:53:25 51°14.466 2°55.082 323.8 10.5 325 12.4
2010-12-20 08:53:30 51°14.478 2°55.068 324.3 10.6 324 12.2
2010-12-20 08:53:35 51°14.489 2°55.054 323.6 10.6 322 -999
2010-12-20 08:53:40 51°14.501 2°55.039 322 10.6 322 12.4
2010-12-20 08:53:45 51°14.513 2°55.025 321.9 10.6 324 12.3
2010-12-20 08:53:50 51°14.525 2°55.012 322.5 10.6 326 12.7
2010-12-20 08:53:55 51°14.537 2°54.999 324.1 10.6 327 13
2010-12-20 08:54:00 51°14.55 2°54.987 326.4 10.6 329 12.9
2010-12-20 08:54:05 51°14.562 2°54.973 327.6 10.6 325 12.8
2010-12-20 08:54:10 51°14.574 2°54.96 326.2 10.6 326 12.8
2010-12-20 08:54:15 51°14.586 2°54.947 325.8 10.7 326 12.7
2010-12-20 08:54:19 51°14.596 2°54.936 325.8 10.7 326 12.8
2010-12-20 08:54:24 51°14.608 2°54.923 325.1 10.7 325 12.5
2010-12-20 08:54:29 51°14.621 2°54.909 324.6 10.7 325 12.7
2010-12-20 08:54:34 51°14.633 2°54.895 324.4 10.7 325 12.7
2010-12-20 08:54:39 51°14.645 2°54.882 324.3 10.7 325 12.7
2010-12-20 08:54:43 51°14.655 2°54.871 324.3 10.8 325 12.7
2010-12-20 08:54:48 51°14.667 2°54.857 324.2 10.7 325 12.6
2010-12-20 08:54:53 51°14.679 2°54.843 323.9 10.8 324 12.7
2010-12-20 08:54:58 51°14.691 2°54.829 324 10.7 325 12.5
2010-12-20 08:55:03 51°14.703 2°54.815 324.1 10.7 325 12.6
2010-12-20 08:55:07 51°14.713 2°54.804 324.1 10.7 325 12.7
2010-12-20 08:55:13 51°14.728 2°54.788 324.5 10.7 325 13
2010-12-20 08:55:17 51°14.737 2°54.777 324.6 10.7 325 13.1
2010-12-20 08:55:22 51°14.749 2°54.763 324.6 10.7 325 12.9
2010-12-20 08:55:27 51°14.761 2°54.75 324.6 10.7 325 12.9
2010-12-20 08:55:31 51°14.771 2°54.739 324.6 10.6 325 13.2
2010-12-20 08:55:37 51°14.786 2°54.723 324.5 10.6 325 13.2
2010-12-20 08:55:42 51°14.798 2°54.709 324.7 10.6 325 12.8
2010-12-20 08:55:47 51°14.81 2°54.696 324.9 10.6 325 12.7
2010-12-20 08:55:52 51°14.822 2°54.683 325 10.6 325 -999
2010-12-20 08:55:58 51°14.836 2°54.666 325 10.7 326 12.7
2010-12-20 08:56:03 51°14.848 2°54.653 325.1 10.7 325 12.7
2010-12-20 08:56:07 51°14.858 2°54.642 325.2 10.6 325 -999
2010-12-20 08:56:13 51°14.872 2°54.626 324.9 10.6 324 13.1
2010-12-20 08:56:19 51°14.887 2°54.609 324.5 10.7 325 -999
2010-12-20 08:56:24 51°14.899 2°54.595 324.2 10.7 324 -999
2010-12-20 08:56:30 51°14.913 2°54.579 324.2 10.6 323 13.2
2010-12-20 08:56:35 51°14.925 2°54.565 324.1 10.6 324 -999
2010-12-20 08:56:40 51°14.937 2°54.551 324 10.6 323 12.9
2010-12-20 08:56:45 51°14.949 2°54.537 324.1 10.6 324 12
2010-12-20 08:56:50 51°14.961 2°54.523 324.1 10.6 324 11.7
2010-12-20 08:56:55 51°14.972 2°54.509 324.5 10.6 324 12.2
2010-12-20 08:56:59 51°14.982 2°54.498 324.7 10.6 324 12.1
2010-12-20 08:57:04 51°14.994 2°54.484 324.9 10.7 324 12.6
2010-12-20 08:57:10 51°15.008 2°54.468 325.2 10.7 324 11.9
2010-12-20 08:57:15 51°15.02 2°54.454 325.2 10.7 324 12.2
2010-12-20 08:57:19 51°15.03 2°54.443 325.3 10.6 324 12.2
2010-12-20 08:57:24 51°15.042 2°54.429 325.4 10.7 324 12.1
2010-12-20 08:57:29 51°15.054 2°54.416 325.4 10.6 324 12.3
2010-12-20 08:57:34 51°15.066 2°54.402 325.4 10.6 323 12
2010-12-20 08:57:39 51°15.077 2°54.387 325.2 10.7 323 12.2
2010-12-20 08:57:43 51°15.087 2°54.375 323.9 10.6 322 12.7
2010-12-20 08:57:48 51°15.099 2°54.361 323.5 10.7 321 12.2
2010-12-20 08:57:53 51°15.11 2°54.346 322.8 10.7 321 12.1
2010-12-20 08:57:58 51°15.122 2°54.332 322.3 10.7 321 11.8
2010-12-20 08:58:03 51°15.133 2°54.317 321.8 10.7 321 12.4
2010-12-20 08:58:07 51°15.142 2°54.304 321.5 10.6 320 12.4
2010-12-20 08:58:12 51°15.153 2°54.29 321.5 10.6 320 12.2
2010-12-20 08:58:17 51°15.165 2°54.275 321.4 10.7 320 12
2010-12-20 08:58:22 51°15.176 2°54.26 321.4 10.7 320 12.3
2010-12-20 08:58:28 51°15.19 2°54.242 321.6 10.7 320 12.2
2010-12-20 08:58:31 51°15.197 2°54.233 321.7 10.7 321 12.4
2010-12-20 08:58:36 51°15.208 2°54.218 321.8 10.6 320 12.8
2010-12-20 08:58:42 51°15.222 2°54.2 322.1 10.6 321 12.2
2010-12-20 08:58:46 51°15.231 2°54.188 322.2 10.7 320 12.2
2010-12-20 08:58:51 51°15.243 2°54.174 322 10.7 321 12.7
2010-12-20 08:58:56 51°15.254 2°54.159 321.8 10.7 321 13
2010-12-20 08:59:02 51°15.268 2°54.141 321.8 10.7 321 13.1
2010-12-20 08:59:07 51°15.28 2°54.126 322 10.7 321 12.8
2010-12-20 08:59:11 51°15.289 2°54.115 322.1 10.7 321 12.7
2010-12-20 08:59:16 51°15.3 2°54.1 322.2 10.7 321 12.7
2010-12-20 08:59:21 51°15.312 2°54.085 322.2 10.7 322 12.9
2010-12-20 08:59:28 51°15.328 2°54.065 322.2 10.7 322 12.5
2010-12-20 08:59:32 51°15.338 2°54.053 322.3 10.6 322 12.9
2010-12-20 08:59:37 51°15.35 2°54.039 322.5 10.6 322 12.7
2010-12-20 08:59:42 51°15.361 2°54.024 322.4 10.6 322 12.7
2010-12-20 08:59:47 51°15.372 2°54.009 322.3 10.6 322 12.6
2010-12-20 08:59:52 51°15.384 2°53.995 322.3 10.6 322 13.2
2010-12-20 08:59:57 51°15.396 2°53.981 322.3 10.7 322 13.1
2010-12-20 09:00:02 51°15.408 2°53.966 322.2 10.6 322 12.8
2010-12-20 09:00:07 51°15.419 2°53.952 322.2 10.6 322 13.1
2010-12-20 09:00:12 51°15.431 2°53.937 322.1 10.6 322 13.5
2010-12-20 09:00:17 51°15.442 2°53.923 322.1 10.7 322 13.3
2010-12-20 09:00:22 51°15.454 2°53.908 321.8 10.8 321 13.1
2010-12-20 09:00:27 51°15.466 2°53.894 322.7 10.8 324 13.2
2010-12-20 09:00:32 51°15.478 2°53.879 324.4 10.8 323 13.1
2010-12-20 09:00:37 51°15.491 2°53.866 325.3 10.8 325 13.2
2010-12-20 09:00:42 51°15.503 2°53.852 326.4 10.9 325 13.2
2010-12-20 09:00:47 51°15.516 2°53.839 327.5 10.9 327 13.1
2010-12-20 09:00:52 51°15.529 2°53.826 328.2 10.9 328 13.3
2010-12-20 09:00:57 51°15.542 2°53.814 329.2 10.9 329 13.4
2010-12-20 09:01:02 51°15.555 2°53.802 331.2 10.9 331 12.8
2010-12-20 09:01:07 51°15.568 2°53.79 331.9 10.9 331 13.1
2010-12-20 09:01:12 51°15.582 2°53.78 333.2 10.9 333 13.2
2010-12-20 09:01:17 51°15.596 2°53.769 333.9 10.9 333 13.1
2010-12-20 09:01:22 51°15.609 2°53.758 334.1 11 334 12.6
2010-12-20 09:01:27 51°15.623 2°53.747 334.4 11 334 12.6
2010-12-20 09:01:32 51°15.636 2°53.736 334.1 11 334 12.5
2010-12-20 09:01:37 51°15.65 2°53.725 333.4 11 333 12.5
2010-12-20 09:01:42 51°15.664 2°53.714 333 11 332 12.6
2010-12-20 09:01:47 51°15.677 2°53.702 332.5 10.9 332 12.6
2010-12-20 09:01:52 51°15.691 2°53.691 331.8 11 332 12.8
2010-12-20 09:01:57 51°15.704 2°53.679 331.5 11 331 12.5
2010-12-20 09:02:02 51°15.717 2°53.668 331.4 11 332 12.8
2010-12-20 09:02:07 51°15.731 2°53.657 332.1 11 333 12.5
2010-12-20 09:02:12 51°15.745 2°53.646 332.5 11 333 12.6
2010-12-20 09:02:17 51°15.759 2°53.635 332.8 11 333 12.5
2010-12-20 09:02:22 51°15.773 2°53.624 333.1 11 333 12.7
2010-12-20 09:02:27 51°15.786 2°53.613 333.1 11.1 334 12.6
2010-12-20 09:02:32 51°15.8 2°53.602 333.2 11.1 334 12.9
2010-12-20 09:02:37 51°15.813 2°53.591 333.1 11.1 334 12.7
2010-12-20 09:02:42 51°15.827 2°53.58 333.1 11.1 334 12.4
2010-12-20 09:02:47 51°15.841 2°53.57 333.1 11.1 334 12.7
2010-12-20 09:02:52 51°15.855 2°53.559 333.2 11 334 12.9
2010-12-20 09:02:57 51°15.868 2°53.548 333.3 11.1 334 12.8
2010-12-20 09:03:02 51°15.882 2°53.538 334.4 11.1 336 12.8
2010-12-20 09:03:07 51°15.896 2°53.528 334.8 11.1 336 12.8
2010-12-20 09:03:12 51°15.91 2°53.519 335.2 11.1 336 12.9
2010-12-20 09:03:17 51°15.924 2°53.509 335.5 11.1 336 12.7
2010-12-20 09:03:22 51°15.938 2°53.499 335.6 11.1 336 12.7
2010-12-20 09:03:27 51°15.952 2°53.489 335.5 11.1 336 12.7
2010-12-20 09:03:32 51°15.966 2°53.478 335.5 11.1 336 13
2010-12-20 09:03:36 51°15.977 2°53.47 335.5 11 335 12.8
2010-12-20 09:03:42 51°15.994 2°53.458 335.3 11 335 13
2010-12-20 09:03:47 51°16.008 2°53.448 335.3 11 336 12.9
2010-12-20 09:03:52 51°16.022 2°53.438 335.8 11 336 13.1
2010-12-20 09:03:57 51°16.036 2°53.427 335.6 11 335 12.7
2010-12-20 09:04:02 51°16.049 2°53.417 335.5 10.9 335 12.9
2010-12-20 09:04:07 51°16.063 2°53.407 335.6 11 335 13
2010-12-20 09:04:12 51°16.077 2°53.397 335.5 11 336 13.2
2010-12-20 09:04:17 51°16.091 2°53.387 335.4 10.9 335 12.8
2010-12-20 09:04:22 51°16.104 2°53.377 335.8 10.8 336 13.1
2010-12-20 09:04:27 51°16.118 2°53.367 335.7 10.9 335 13.1
2010-12-20 09:04:32 51°16.131 2°53.357 335.8 10.9 336 13.1
2010-12-20 09:04:37 51°16.145 2°53.347 336.1 10.9 336 13.1
2010-12-20 09:04:43 51°16.161 2°53.336 336.2 10.9 336 13.2
2010-12-20 09:04:47 51°16.173 2°53.328 336 10.9 336 13
2010-12-20 09:04:52 51°16.186 2°53.318 335.7 10.9 335 13
2010-12-20 09:04:57 51°16.2 2°53.308 335.7 10.8 336 13
2010-12-20 09:05:02 51°16.214 2°53.298 335.9 10.9 335 13.2
2010-12-20 09:05:07 51°16.228 2°53.288 336.1 10.9 336 13.4
2010-12-20 09:05:12 51°16.242 2°53.278 336.1 10.9 336 13.5
2010-12-20 09:05:17 51°16.255 2°53.269 336.1 10.9 336 13.2
2010-12-20 09:05:23 51°16.272 2°53.257 336.1 10.9 336 13.1
2010-12-20 09:05:27 51°16.284 2°53.249 336.1 11 336 13.5
2010-12-20 09:05:32 51°16.298 2°53.239 335.8 11 336 13.5
2010-12-20 09:05:37 51°16.312 2°53.23 335.8 11 337 13.4
2010-12-20 09:05:42 51°16.325 2°53.22 335.9 11 337 13.3
2010-12-20 09:05:47 51°16.339 2°53.21 336.1 10.9 337 13.4
2010-12-20 09:05:52 51°16.353 2°53.201 336.1 11 336 13.4
2010-12-20 09:05:57 51°16.367 2°53.191 335.8 11 336 13.4
2010-12-20 09:06:02 51°16.381 2°53.181 335.5 11.1 336 13.6
2010-12-20 09:06:08 51°16.398 2°53.169 335.4 11 337 13.3
2010-12-20 09:06:12 51°16.409 2°53.162 335.4 11 336 13.4
2010-12-20 09:06:17 51°16.423 2°53.152 335.3 10.9 336 13.4
2010-12-20 09:06:22 51°16.437 2°53.142 335.4 11 336 13.5
2010-12-20 09:06:27 51°16.451 2°53.132 335.4 10.9 336 13.4
2010-12-20 09:06:32 51°16.464 2°53.123 335.4 10.9 336 13.5
2010-12-20 09:06:37 51°16.478 2°53.113 335.5 10.9 336 13.2
2010-12-20 09:06:42 51°16.492 2°53.104 335.4 11 336 13.4
2010-12-20 09:06:47 51°16.506 2°53.094 335.5 10.9 337 13.3
2010-12-20 09:06:52 51°16.52 2°53.084 335.6 10.9 337 13.4
2010-12-20 09:06:57 51°16.534 2°53.074 335.5 10.9 336 13.5
2010-12-20 09:07:02 51°16.548 2°53.064 335.5 10.9 335 13.1
2010-12-20 09:07:07 51°16.562 2°53.055 335.3 10.9 336 13.3
2010-12-20 09:07:12 51°16.575 2°53.045 335.2 10.9 336 13.4
2010-12-20 09:07:17 51°16.589 2°53.035 335.3 10.9 336 13.2
2010-12-20 09:07:22 51°16.603 2°53.025 335.3 10.9 336 13.5
2010-12-20 09:07:27 51°16.616 2°53.015 335.3 10.8 336 13.1
2010-12-20 09:07:32 51°16.63 2°53.005 335.4 10.9 336 13.2
2010-12-20 09:07:37 51°16.644 2°52.995 335.5 10.9 336 13
2010-12-20 09:07:43 51°16.661 2°52.983 335.4 10.9 336 13.3
2010-12-20 09:07:47 51°16.672 2°52.975 335.4 10.9 336 13.1
2010-12-20 09:07:52 51°16.685 2°52.965 335.6 10.9 336 12.9
2010-12-20 09:07:56 51°16.697 2°52.957 335.6 10.9 336 12.6
2010-12-20 09:08:02 51°16.713 2°52.946 335.5 10.9 336 12.7
2010-12-20 09:08:07 51°16.727 2°52.935 335.3 10.9 336 12.5
2010-12-20 09:08:12 51°16.741 2°52.926 335.2 10.9 336 12.3
2010-12-20 09:08:16 51°16.752 2°52.917 335.2 10.9 336 12.1
2010-12-20 09:08:22 51°16.768 2°52.905 335.2 10.9 335 12
2010-12-20 09:08:27 51°16.782 2°52.896 335.1 10.9 335 11.8
2010-12-20 09:08:32 51°16.796 2°52.886 334.9 10.9 335 11.3
2010-12-20 09:08:37 51°16.809 2°52.876 334.9 10.8 336 11
2010-12-20 09:08:42 51°16.823 2°52.866 335.3 10.8 336 11.2
2010-12-20 09:08:47 51°16.837 2°52.856 335.5 10.8 336 10.8
2010-12-20 09:08:52 51°16.851 2°52.846 335.4 10.8 335 10.9
2010-12-20 09:08:57 51°16.864 2°52.836 335.1 10.9 335 10.9
2010-12-20 09:09:02 51°16.878 2°52.826 335 10.8 335 10.8
2010-12-20 09:09:07 51°16.891 2°52.816 334.7 10.8 335 11.1
2010-12-20 09:09:12 51°16.905 2°52.806 334.8 10.8 335 10.9
2010-12-20 09:09:17 51°16.919 2°52.796 335 10.9 335 11.1
2010-12-20 09:09:22 51°16.932 2°52.786 335.2 10.8 335 10.8
2010-12-20 09:09:27 51°16.946 2°52.776 335.2 10.8 335 11
2010-12-20 09:09:32 51°16.96 2°52.766 335.2 10.9 336 11.1
2010-12-20 09:09:37 51°16.974 2°52.756 335.4 10.8 336 11
2010-12-20 09:09:42 51°16.987 2°52.746 335.6 10.9 335 11.3
2010-12-20 09:09:47 51°17.001 2°52.736 335.4 10.8 335 11.2
2010-12-20 09:09:52 51°17.014 2°52.726 335.2 10.8 335 11.5
2010-12-20 09:09:57 51°17.028 2°52.716 334.9 10.8 335 11.7
2010-12-20 09:10:03 51°17.044 2°52.704 334.9 10.8 335 11.7
2010-12-20 09:10:07 51°17.055 2°52.695 334.8 10.8 335 11.6
2010-12-20 09:10:12 51°17.069 2°52.686 335 10.8 336 11.8
2010-12-20 09:10:17 51°17.083 2°52.676 335.1 10.8 335 11.3
2010-12-20 09:10:22 51°17.096 2°52.666 335.3 10.7 336 11.2
2010-12-20 09:10:27 51°17.11 2°52.656 335.4 10.9 335 11.6
2010-12-20 09:10:32 51°17.124 2°52.646 335.3 10.8 335 11.1
2010-12-20 09:10:37 51°17.137 2°52.636 335.4 10.8 335 11.2
2010-12-20 09:10:42 51°17.151 2°52.626 335.5 10.8 336 11.3
2010-12-20 09:10:47 51°17.164 2°52.616 335.7 10.8 336 11.6
2010-12-20 09:10:52 51°17.178 2°52.606 335.8 10.8 336 11.7
2010-12-20 09:10:57 51°17.192 2°52.596 335.9 10.8 336 11.7
2010-12-20 09:11:02 51°17.206 2°52.587 336 10.9 336 11.8
2010-12-20 09:11:07 51°17.219 2°52.577 335.9 10.8 335 11.6
2010-12-20 09:11:12 51°17.233 2°52.567 335.5 10.8 336 11.8
2010-12-20 09:11:17 51°17.247 2°52.557 335.4 10.9 335 11.9
2010-12-20 09:11:22 51°17.26 2°52.547 335.1 10.8 335 11.9
2010-12-20 09:11:27 51°17.274 2°52.537 335.1 10.8 335 11.9
2010-12-20 09:11:32 51°17.288 2°52.527 335.1 10.8 335 11.8
2010-12-20 09:11:37 51°17.301 2°52.517 335 10.8 335 11.8
2010-12-20 09:11:42 51°17.315 2°52.506 334.9 10.9 335 11.7
2010-12-20 09:11:47 51°17.329 2°52.496 334.8 10.9 334 12
2010-12-20 09:11:52 51°17.343 2°52.486 334.7 10.9 334 11.8
2010-12-20 09:11:57 51°17.356 2°52.475 334.3 10.8 333 12.3
2010-12-20 09:12:02 51°17.37 2°52.464 334.4 10.9 334 12.2
2010-12-20 09:12:07 51°17.383 2°52.454 334.7 10.9 335 12.1
2010-12-20 09:12:12 51°17.397 2°52.444 334.9 10.9 335 12
2010-12-20 09:12:17 51°17.411 2°52.434 335.2 10.9 335 12.1
2010-12-20 09:12:22 51°17.424 2°52.424 335.4 10.9 335 12.1
2010-12-20 09:12:27 51°17.438 2°52.414 335.6 10.9 335 12.2
2010-12-20 09:12:32 51°17.452 2°52.404 335.3 10.8 335 12.3
2010-12-20 09:12:37 51°17.465 2°52.394 335.4 10.8 335 12.2
2010-12-20 09:12:42 51°17.479 2°52.383 335.4 10.9 335 12.3
2010-12-20 09:12:47 51°17.493 2°52.373 335.4 10.9 335 12.1
2010-12-20 09:12:52 51°17.507 2°52.363 335.5 10.9 335 12.3
2010-12-20 09:12:57 51°17.52 2°52.353 335.4 10.9 335 12.2
2010-12-20 09:13:02 51°17.534 2°52.343 335.4 10.9 336 12
2010-12-20 09:13:07 51°17.548 2°52.333 335.4 10.9 335 11.9
2010-12-20 09:13:12 51°17.562 2°52.323 335.4 11 335 12.2
2010-12-20 09:13:17 51°17.575 2°52.313 335.3 10.9 335 12.1
2010-12-20 09:13:22 51°17.589 2°52.302 335.4 10.9 335 12.1
2010-12-20 09:13:27 51°17.603 2°52.292 335.3 10.9 335 12.1
2010-12-20 09:13:32 51°17.617 2°52.282 335.4 10.9 336 12.1
2010-12-20 09:13:37 51°17.63 2°52.272 335.6 10.9 336 12.2
2010-12-20 09:13:42 51°17.644 2°52.262 335.6 10.8 335 12.1
2010-12-20 09:13:47 51°17.658 2°52.252 335.4 10.9 335 12.6
2010-12-20 09:13:52 51°17.672 2°52.242 335.2 10.9 335 12.7
2010-12-20 09:13:57 51°17.685 2°52.232 334.9 10.8 335 12.9
2010-12-20 09:14:02 51°17.699 2°52.222 334.9 11 335 13.3
2010-12-20 09:14:07 51°17.712 2°52.212 335 10.8 335 13
2010-12-20 09:14:12 51°17.726 2°52.202 334.9 10.8 335 12.9
2010-12-20 09:14:17 51°17.74 2°52.191 334.9 10.8 334 12.8
2010-12-20 09:14:22 51°17.753 2°52.181 334.7 10.8 334 13.3
2010-12-20 09:14:27 51°17.767 2°52.171 334.9 10.8 335 12.9
2010-12-20 09:14:32 51°17.781 2°52.161 335.3 10.8 335 12.7
2010-12-20 09:14:37 51°17.794 2°52.151 335.4 10.8 336 12.9
2010-12-20 09:14:43 51°17.811 2°52.139 335.7 10.8 335 12.8
2010-12-20 09:14:47 51°17.822 2°52.131 335.7 10.8 336 12.8
2010-12-20 09:14:52 51°17.835 2°52.121 335.4 10.8 335 13.1
2010-12-20 09:14:56 51°17.846 2°52.113 335.4 10.8 336 12.8
2010-12-20 09:15:02 51°17.862 2°52.101 335.5 10.8 335 13
2010-12-20 09:15:07 51°17.876 2°52.091 335.4 10.8 335 13.1
2010-12-20 09:15:12 51°17.89 2°52.081 335.3 10.8 335 13.2
2010-12-20 09:15:17 51°17.904 2°52.072 335.5 10.9 337 13.1
2010-12-20 09:15:22 51°17.918 2°52.062 335.8 10.9 336 13.4
2010-12-20 09:15:27 51°17.931 2°52.052 335.7 10.8 335 12.8
2010-12-20 09:15:32 51°17.945 2°52.042 335.4 10.8 336 12.8
2010-12-20 09:15:37 51°17.959 2°52.032 335.3 10.9 335 12.7
2010-12-20 09:15:42 51°17.973 2°52.021 334.7 11.1 334 13
2010-12-20 09:15:47 51°17.987 2°52.011 334.7 11.2 335 12.8
2010-12-20 09:15:52 51°18.001 2°52.001 334.7 11.3 335 12.3
2010-12-20 09:15:57 51°18.015 2°51.99 335.4 11.3 336 12.3
2010-12-20 09:16:02 51°18.029 2°51.98 335.7 11.3 335 12.4
2010-12-20 09:16:07 51°18.044 2°51.969 335.3 11.4 336 12.3
2010-12-20 09:16:12 51°18.058 2°51.959 335.5 11.5 336 12.2
2010-12-20 09:16:17 51°18.073 2°51.948 335.6 11.5 336 12.3
2010-12-20 09:16:22 51°18.087 2°51.937 335.4 11.5 335 12.6
2010-12-20 09:16:27 51°18.102 2°51.926 335.2 11.6 335 12.5
2010-12-20 09:16:32 51°18.117 2°51.915 335 11.6 334 12.6
2010-12-20 09:16:37 51°18.131 2°51.904 335 11.6 334 12.5
2010-12-20 09:16:43 51°18.149 2°51.891 334.8 11.6 335 12.7
2010-12-20 09:16:47 51°18.16 2°51.882 335.2 11.6 334 12.9
2010-12-20 09:16:52 51°18.175 2°51.871 335.7 11.6 336 13.1
2010-12-20 09:16:56 51°18.187 2°51.862 335.7 11.7 335 12.8
2010-12-20 09:17:02 51°18.204 2°51.85 335.9 11.7 336 12.8
2010-12-20 09:17:07 51°18.219 2°51.839 336 11.6 336 12.7
2010-12-20 09:17:12 51°18.234 2°51.828 336.1 11.7 336 12.9
2010-12-20 09:17:17 51°18.249 2°51.818 336 11.8 336 12.8
2010-12-20 09:17:22 51°18.263 2°51.807 336 11.7 335 12.9
2010-12-20 09:17:27 51°18.278 2°51.797 335.6 11.7 336 13.1
2010-12-20 09:17:32 51°18.293 2°51.786 335.6 11.8 335 13.2
2010-12-20 09:17:37 51°18.308 2°51.775 335.6 11.8 336 13.4
2010-12-20 09:17:42 51°18.322 2°51.764 335.4 11.8 335 13.5
2010-12-20 09:17:47 51°18.337 2°51.753 335.4 11.8 335 13.6
2010-12-20 09:17:52 51°18.352 2°51.742 335.5 11.8 335 13.7
2010-12-20 09:17:57 51°18.367 2°51.73 335.6 11.8 334 13.8
2010-12-20 09:18:02 51°18.382 2°51.72 335.2 11.8 335 14.1
2010-12-20 09:18:07 51°18.397 2°51.708 335.2 11.9 335 13.9
2010-12-20 09:18:12 51°18.411 2°51.697 335.4 11.8 335 13.8
2010-12-20 09:18:17 51°18.426 2°51.686 335.4 11.8 335 14.1
2010-12-20 09:18:22 51°18.441 2°51.675 335.4 11.9 335 14.4
2010-12-20 09:18:27 51°18.456 2°51.664 335.5 11.8 335 14.5
2010-12-20 09:18:32 51°18.47 2°51.653 335.4 11.7 335 14.3
2010-12-20 09:18:37 51°18.485 2°51.642 335.4 11.7 335 14.8
2010-12-20 09:18:42 51°18.5 2°51.631 335.3 11.7 335 14.6
2010-12-20 09:18:47 51°18.515 2°51.62 335.4 11.7 335 14.6
2010-12-20 09:18:52 51°18.529 2°51.609 335.4 11.7 335 15.1
2010-12-20 09:18:57 51°18.544 2°51.598 335.4 11.7 335 15
2010-12-20 09:19:02 51°18.559 2°51.587 335.3 11.8 335 15.1
2010-12-20 09:19:07 51°18.574 2°51.576 335.4 11.8 335 15.4
2010-12-20 09:19:12 51°18.589 2°51.565 335.6 11.8 335 15.3
2010-12-20 09:19:17 51°18.603 2°51.553 335.3 11.8 334 15.6
2010-12-20 09:19:22 51°18.618 2°51.542 335.2 11.8 334 15.3
2010-12-20 09:19:27 51°18.633 2°51.53 335.1 11.7 334 15.3
2010-12-20 09:19:32 51°18.648 2°51.519 335.3 11.7 335 15.9
2010-12-20 09:19:37 51°18.663 2°51.509 335.8 11.8 335 15.7
2010-12-20 09:19:42 51°18.678 2°51.498 335.5 11.8 335 15.9
2010-12-20 09:19:47 51°18.692 2°51.487 335.7 11.8 335 15.9
2010-12-20 09:19:52 51°18.707 2°51.476 335.6 11.8 335 16
2010-12-20 09:19:57 51°18.722 2°51.465 335.4 11.8 334 16
2010-12-20 09:20:02 51°18.737 2°51.454 335.4 11.7 335 15.6
2010-12-20 09:20:07 51°18.751 2°51.442 335.1 11.7 334 15.8
2010-12-20 09:20:12 51°18.766 2°51.431 335.1 11.8 334 16.5
2010-12-20 09:20:16 51°18.778 2°51.422 335.3 11.7 335 16.1
2010-12-20 09:20:22 51°18.795 2°51.409 335.4 11.8 335 16.3
2010-12-20 09:20:27 51°18.81 2°51.398 335.5 11.8 335 16.3
2010-12-20 09:20:32 51°18.825 2°51.387 335.5 11.8 335 16.4
2010-12-20 09:20:37 51°18.84 2°51.376 335.4 11.7 335 16.4
2010-12-20 09:20:42 51°18.855 2°51.365 335.4 11.8 334 16.7
2010-12-20 09:20:47 51°18.869 2°51.354 335.5 11.8 335 16.5
2010-12-20 09:20:52 51°18.884 2°51.343 335.7 11.8 335 16.4
2010-12-20 09:20:57 51°18.899 2°51.333 336.1 11.8 337 16.8
2010-12-20 09:21:02 51°18.914 2°51.322 336.9 11.7 337 16.3
2010-12-20 09:21:07 51°18.929 2°51.312 337.2 11.7 337 16.6
2010-12-20 09:21:12 51°18.944 2°51.302 337.5 11.8 338 16.9
2010-12-20 09:21:17 51°18.959 2°51.291 337.8 11.8 337 17
2010-12-20 09:21:23 51°18.977 2°51.28 337.9 11.7 338 16.7
2010-12-20 09:21:27 51°18.989 2°51.271 338.1 11.7 337 16.8
2010-12-20 09:21:32 51°19.004 2°51.261 337.7 11.8 337 16.6
2010-12-20 09:21:37 51°19.019 2°51.251 337.6 11.7 337 17
2010-12-20 09:21:42 51°19.034 2°51.241 337.5 11.8 336 16.7
2010-12-20 09:21:47 51°19.049 2°51.231 337.3 11.7 337 16.8
2010-12-20 09:21:52 51°19.064 2°51.22 337.6 11.7 337 17
2010-12-20 09:21:57 51°19.079 2°51.21 337.6 11.7 337 17
2010-12-20 09:22:02 51°19.094 2°51.201 337.8 11.8 338 17
2010-12-20 09:22:07 51°19.109 2°51.19 337.7 11.8 338 17.1
2010-12-20 09:22:12 51°19.124 2°51.18 337.6 11.8 337 17.1
2010-12-20 09:22:17 51°19.139 2°51.17 337.6 11.8 337 16.9
2010-12-20 09:22:22 51°19.155 2°51.16 337.6 11.8 338 16.7
2010-12-20 09:22:27 51°19.17 2°51.15 337.6 11.8 338 17
2010-12-20 09:22:32 51°19.185 2°51.14 337.8 11.8 337 17.2
2010-12-20 09:22:37 51°19.2 2°51.129 337.7 11.9 337 17.1
2010-12-20 09:22:42 51°19.215 2°51.119 337.6 11.9 337 17.1
2010-12-20 09:22:47 51°19.23 2°51.109 337.4 11.9 338 17.3
2010-12-20 09:22:52 51°19.246 2°51.099 337.8 11.9 338 17.2
2010-12-20 09:22:57 51°19.26 2°51.089 337.6 11.8 337 16.8
2010-12-20 09:23:02 51°19.276 2°51.079 337.6 11.8 338 17
2010-12-20 09:23:07 51°19.291 2°51.069 337.4 11.8 337 16.9
2010-12-20 09:23:12 51°19.306 2°51.059 337.2 11.9 338 16.5
2010-12-20 09:23:17 51°19.321 2°51.048 337.2 11.8 336 16.8
2010-12-20 09:23:22 51°19.336 2°51.038 337.1 11.9 338 16.5
2010-12-20 09:23:27 51°19.351 2°51.028 337.2 11.8 337 16.6
2010-12-20 09:23:32 51°19.366 2°51.018 337.1 11.8 337 17
2010-12-20 09:23:37 51°19.381 2°51.008 337.5 11.8 337 16.6
2010-12-20 09:23:42 51°19.396 2°50.998 337.4 11.8 337 16.7
2010-12-20 09:23:47 51°19.412 2°50.988 337.4 11.8 337 16.6
2010-12-20 09:23:52 51°19.427 2°50.978 337.6 11.8 337 16.4
2010-12-20 09:23:57 51°19.442 2°50.968 337.6 11.8 338 16.5
2010-12-20 09:24:02 51°19.458 2°50.958 337.6 11.9 338 16.1
2010-12-20 09:24:07 51°19.473 2°50.948 337.7 11.9 338 16.2
2010-12-20 09:24:12 51°19.488 2°50.938 337.7 11.9 338 16
2010-12-20 09:24:17 51°19.504 2°50.928 337.6 11.9 337 15.8
2010-12-20 09:24:22 51°19.519 2°50.917 337.1 11.9 337 15.6
2010-12-20 09:24:27 51°19.534 2°50.907 337.1 11.9 338 15.5
2010-12-20 09:24:32 51°19.549 2°50.897 337.2 12 337 15.4
2010-12-20 09:24:37 51°19.565 2°50.887 337 11.9 338 15
2010-12-20 09:24:42 51°19.58 2°50.877 337.2 11.9 337 15
2010-12-20 09:24:47 51°19.595 2°50.867 337.5 11.9 338 15
2010-12-20 09:24:52 51°19.611 2°50.857 337 11.9 337 14.6
2010-12-20 09:24:57 51°19.626 2°50.847 337.2 11.8 338 14.4
2010-12-20 09:25:02 51°19.641 2°50.837 337.2 11.8 338 14.4
2010-12-20 09:25:07 51°19.656 2°50.827 337.2 11.8 338 14.2
2010-12-20 09:25:12 51°19.672 2°50.817 337.1 11.8 338 14
2010-12-20 09:25:17 51°19.687 2°50.808 337.2 11.7 338 14.1
2010-12-20 09:25:22 51°19.702 2°50.798 337.6 11.7 338 14.2
2010-12-20 09:25:27 51°19.717 2°50.788 337.6 11.8 339 14.3
2010-12-20 09:25:32 51°19.732 2°50.779 337.6 11.7 339 14.3
2010-12-20 09:25:37 51°19.747 2°50.769 337.7 11.7 338 14.2
2010-12-20 09:25:43 51°19.765 2°50.758 337.6 11.6 338 14
2010-12-20 09:25:47 51°19.777 2°50.75 337.2 11.6 338 14.4
2010-12-20 09:25:52 51°19.792 2°50.741 337.2 11.7 338 14.2
2010-12-20 09:25:57 51°19.807 2°50.731 337.1 11.7 338 14.2
2010-12-20 09:26:02 51°19.822 2°50.721 337.1 11.6 338 14
2010-12-20 09:26:07 51°19.837 2°50.712 337.3 11.6 338 14.1
2010-12-20 09:26:12 51°19.852 2°50.702 337.1 11.6 338 14.5
2010-12-20 09:26:17 51°19.867 2°50.693 337.3 11.6 339 14.6
2010-12-20 09:26:22 51°19.882 2°50.683 337.2 11.7 337 14.8
2010-12-20 09:26:27 51°19.897 2°50.673 337.2 11.7 339 14.8
2010-12-20 09:26:32 51°19.912 2°50.663 337.5 11.7 338 14.9
2010-12-20 09:26:37 51°19.927 2°50.654 337.4 11.7 339 15.1
2010-12-20 09:26:42 51°19.942 2°50.644 337.2 11.7 338 15.3
2010-12-20 09:26:47 51°19.957 2°50.634 337.6 11.7 338 15.5
2010-12-20 09:26:52 51°19.972 2°50.624 337.2 11.7 337 15.9
2010-12-20 09:26:57 51°19.987 2°50.614 336.9 11.8 337 16.1
2010-12-20 09:27:02 51°20.002 2°50.604 336.9 11.7 337 16.3
2010-12-20 09:27:07 51°20.017 2°50.594 336.7 11.7 337 16.8
2010-12-20 09:27:12 51°20.032 2°50.584 336.8 11.6 337 17.3
2010-12-20 09:27:17 51°20.047 2°50.574 336.9 11.7 337 17.3
2010-12-20 09:27:22 51°20.062 2°50.564 337.2 11.6 338 17.4
2010-12-20 09:27:27 51°20.077 2°50.554 337 11.6 337 17.6
2010-12-20 09:27:32 51°20.092 2°50.545 337 11.6 338 17.6
2010-12-20 09:27:37 51°20.107 2°50.535 337.3 11.7 338 17.2
2010-12-20 09:27:42 51°20.122 2°50.526 337.6 11.7 338 17.4
2010-12-20 09:27:47 51°20.137 2°50.516 337.3 11.8 337 17.6
2010-12-20 09:27:52 51°20.152 2°50.506 337.3 11.8 338 17.8
2010-12-20 09:27:57 51°20.167 2°50.496 337.3 11.8 337 17.6
2010-12-20 09:28:02 51°20.182 2°50.486 337.3 11.8 337 18.2
2010-12-20 09:28:07 51°20.197 2°50.476 337.2 11.7 338 17.4
2010-12-20 09:28:12 51°20.212 2°50.466 337.1 11.7 337 18
2010-12-20 09:28:17 51°20.227 2°50.456 337.3 11.7 338 18.2
2010-12-20 09:28:22 51°20.242 2°50.446 337.2 11.7 337 18.2
2010-12-20 09:28:27 51°20.257 2°50.436 337.1 11.8 337 18.5
2010-12-20 09:28:32 51°20.272 2°50.425 336.9 11.7 337 18.5
2010-12-20 09:28:37 51°20.287 2°50.415 336.9 11.8 337 18.8
2010-12-20 09:28:42 51°20.302 2°50.405 336.9 11.8 337 18.6
2010-12-20 09:28:47 51°20.317 2°50.394 336.9 11.8 337 18.6
2010-12-20 09:28:52 51°20.332 2°50.385 336.9 11.8 338 19.3
2010-12-20 09:28:56 51°20.344 2°50.377 336.9 11.8 337 19.3
2010-12-20 09:29:02 51°20.362 2°50.365 337.2 11.8 338 19.8
2010-12-20 09:29:07 51°20.377 2°50.355 337.6 11.8 338 20
2010-12-20 09:29:12 51°20.392 2°50.345 337.6 11.9 337 20.2
2010-12-20 09:29:17 51°20.408 2°50.335 337.4 11.9 338 20.4
2010-12-20 09:29:22 51°20.423 2°50.324 337.3 11.8 337 20.6
2010-12-20 09:29:27 51°20.438 2°50.314 337.2 11.9 337 21.3
2010-12-20 09:29:32 51°20.453 2°50.304 337.1 11.8 336 21.3
2010-12-20 09:29:37 51°20.468 2°50.294 337.2 11.8 338 21.5
2010-12-20 09:29:42 51°20.483 2°50.283 337.2 11.9 337 21.8
2010-12-20 09:29:47 51°20.499 2°50.274 337.6 11.8 338 21.6
2010-12-20 09:29:52 51°20.514 2°50.263 337.6 11.9 337 22.1
2010-12-20 09:29:56 51°20.526 2°50.255 337.1 11.6 337 22.1
2010-12-20 09:30:02 51°20.543 2°50.243 337.2 11.5 337 22.6
2010-12-20 09:30:07 51°20.557 2°50.234 337.2 11 337 22.9
2010-12-20 09:30:12 51°20.571 2°50.225 337.6 10.7 338 23.1
2010-12-20 09:30:17 51°20.584 2°50.216 337.6 10.4 337 23
2010-12-20 09:30:22 51°20.596 2°50.208 337.4 9.8 337 23.3
2010-12-20 09:30:27 51°20.609 2°50.2 337.3 9.5 337 23.7
2010-12-20 09:30:32 51°20.621 2°50.192 337.3 9.3 338 23.7
2010-12-20 09:30:37 51°20.632 2°50.184 337.2 9.2 338 23.7
2010-12-20 09:30:42 51°20.644 2°50.176 337.3 9.1 337 24.2
2010-12-20 09:30:47 51°20.656 2°50.169 337.6 8.9 338 24.1
2010-12-20 09:30:52 51°20.667 2°50.161 337.3 8.9 337 24.2
2010-12-20 09:30:57 51°20.678 2°50.154 337.2 8.8 338 24.3
2010-12-20 09:31:02 51°20.689 2°50.146 336.9 8.8 338 24.1
2010-12-20 09:31:07 51°20.7 2°50.139 336.9 8.7 337 24.7
2010-12-20 09:31:12 51°20.711 2°50.132 336.9 8.6 337 24.8
2010-12-20 09:31:16 51°20.72 2°50.126 337.2 8.6 337 25.1
2010-12-20 09:31:22 51°20.733 2°50.118 337.2 8.6 338 25.1
2010-12-20 09:31:27 51°20.744 2°50.11 337.1 8.5 338 25.1
2010-12-20 09:31:32 51°20.755 2°50.103 337.2 8.5 338 25.2
2010-12-20 09:31:36 51°20.764 2°50.097 337.5 8.6 337 25
2010-12-20 09:31:42 51°20.777 2°50.089 337.2 8.6 338 25
2010-12-20 09:31:47 51°20.788 2°50.082 337.2 8.5 337 24.9
2010-12-20 09:31:52 51°20.799 2°50.075 337 8.5 338 25.1
2010-12-20 09:31:57 51°20.81 2°50.067 336.9 8.4 338 25.3
2010-12-20 09:32:02 51°20.82 2°50.06 336.9 8.4 338 25.5
2010-12-20 09:32:07 51°20.831 2°50.053 336.9 8.5 338 25.3
2010-12-20 09:32:12 51°20.842 2°50.046 336.9 8.5 338 25.2
2010-12-20 09:32:16 51°20.851 2°50.04 336.9 8.4 338 25.3
2010-12-20 09:32:22 51°20.864 2°50.032 336.9 8.4 337 25.3
2010-12-20 09:32:27 51°20.874 2°50.025 337 8.3 338 25.3
2010-12-20 09:32:32 51°20.885 2°50.018 336.7 8.3 338 25.9
2010-12-20 09:32:36 51°20.894 2°50.012 336.4 8.4 338 25.7
2010-12-20 09:32:42 51°20.907 2°50.003 336.6 8.4 338 25.7
2010-12-20 09:32:47 51°20.917 2°49.997 336.9 8.4 338 25.7
2010-12-20 09:32:52 51°20.928 2°49.989 337.1 8.4 338 25.9
2010-12-20 09:32:57 51°20.939 2°49.982 337.1 8.5 338 25.5
2010-12-20 09:33:02 51°20.95 2°49.975 337.1 8.5 338 25.8
2010-12-20 09:33:07 51°20.961 2°49.968 337.1 8.5 338 25.7
2010-12-20 09:33:12 51°20.972 2°49.961 337.1 8.5 338 25.6
2010-12-20 09:33:17 51°20.983 2°49.954 337.1 8.5 338 25.2
2010-12-20 09:33:22 51°20.993 2°49.947 336.9 8.4 338 25.7
2010-12-20 09:33:27 51°21.004 2°49.939 336.9 8.4 337 25.7
2010-12-20 09:33:32 51°21.015 2°49.932 336.9 8.5 339 25.2
2010-12-20 09:33:37 51°21.026 2°49.926 337.1 8.4 338 25.7
2010-12-20 09:33:42 51°21.037 2°49.919 337.3 8.4 338 25.5
2010-12-20 09:33:47 51°21.048 2°49.912 337.4 8.4 338 25.3
2010-12-20 09:33:52 51°21.058 2°49.905 337 8.4 338 25.7
2010-12-20 09:33:57 51°21.069 2°49.897 336.8 8.4 338 25.4
2010-12-20 09:34:02 51°21.08 2°49.891 336.8 8.4 338 25.5
2010-12-20 09:34:07 51°21.091 2°49.884 336.8 8.4 338 25.5
2010-12-20 09:34:12 51°21.102 2°49.877 336.9 8.5 339 25.4
2010-12-20 09:34:17 51°21.113 2°49.869 337 8.4 338 25.2
2010-12-20 09:34:22 51°21.123 2°49.863 337 8.5 338 25.6
2010-12-20 09:34:27 51°21.134 2°49.856 337.2 8.4 338 25.4
2010-12-20 09:34:32 51°21.145 2°49.849 337.1 8.4 339 25.3
2010-12-20 09:34:37 51°21.156 2°49.842 337 8.4 338 25.6
2010-12-20 09:34:43 51°21.169 2°49.834 337.2 8.5 338 25.1
2010-12-20 09:34:47 51°21.178 2°49.828 337.5 8.4 339 25.3
2010-12-20 09:34:52 51°21.189 2°49.822 337.8 8.4 339 25.2
2010-12-20 09:34:57 51°21.199 2°49.815 337.8 8.4 339 24.9
2010-12-20 09:35:02 51°21.21 2°49.808 337.6 8.4 338 25.3
2010-12-20 09:35:07 51°21.221 2°49.801 337.6 8.5 338 25
2010-12-20 09:35:12 51°21.232 2°49.794 337.6 8.5 338 24.7
2010-12-20 09:35:16 51°21.241 2°49.789 337.1 8.5 339 24.8
2010-12-20 09:35:22 51°21.254 2°49.781 337.2 8.4 339 24.8
2010-12-20 09:35:27 51°21.265 2°49.774 337.6 8.5 339 25
2010-12-20 09:35:32 51°21.276 2°49.767 337.7 8.4 339 24.9
2010-12-20 09:35:37 51°21.287 2°49.761 337.6 8.5 339 24.6
2010-12-20 09:35:42 51°21.298 2°49.754 337.5 8.5 339 24.8
2010-12-20 09:35:47 51°21.309 2°49.747 337.3 8.5 339 25.1
2010-12-20 09:35:52 51°21.32 2°49.74 337.4 8.5 338 24.8
2010-12-20 09:35:57 51°21.33 2°49.733 337 8.4 339 24.7
2010-12-20 09:36:02 51°21.342 2°49.726 336.8 8.5 338 24.6
2010-12-20 09:36:07 51°21.352 2°49.72 336.9 8.5 339 24.7
2010-12-20 09:36:12 51°21.363 2°49.713 337.3 8.5 339 24.5
2010-12-20 09:36:17 51°21.374 2°49.706 337.3 8.5 339 24.3
2010-12-20 09:36:22 51°21.385 2°49.7 337.3 8.5 339 24.1
2010-12-20 09:36:27 51°21.396 2°49.693 337.4 8.5 339 24.4
2010-12-20 09:36:32 51°21.408 2°49.686 337.6 8.6 340 24.5
2010-12-20 09:36:37 51°21.419 2°49.679 337.2 8.9 339 24.3
2010-12-20 09:36:43 51°21.433 2°49.671 337.3 9.1 339 24
2010-12-20 09:36:47 51°21.443 2°49.665 337.4 9.3 339 24.2
2010-12-20 09:36:52 51°21.455 2°49.657 337.3 9.4 339 24.4
2010-12-20 09:36:56 51°21.465 2°49.651 337.6 9.6 339 24.2
2010-12-20 09:37:02 51°21.48 2°49.642 337.3 9.8 339 24.1
2010-12-20 09:37:07 51°21.493 2°49.634 337.4 9.8 340 23.8
2010-12-20 09:37:12 51°21.505 2°49.626 337.4 9.8 339 24.1
2010-12-20 09:37:17 51°21.518 2°49.619 337.6 9.9 340 24.6
2010-12-20 09:37:22 51°21.531 2°49.611 337.7 10 339 24.1
2010-12-20 09:37:27 51°21.544 2°49.603 337.6 10 339 24.1
2010-12-20 09:37:32 51°21.557 2°49.594 337.4 10.2 338 24.4
2010-12-20 09:37:36 51°21.568 2°49.588 336.9 10.6 339 24.7
2010-12-20 09:37:42 51°21.585 2°49.577 337.2 10.9 339 24.6
2010-12-20 09:37:47 51°21.6 2°49.568 337.1 11.2 338 24.9
2010-12-20 09:37:52 51°21.614 2°49.559 337.2 11.3 340 24.5
2010-12-20 09:37:57 51°21.629 2°49.549 337 11.5 337 24.9
2010-12-20 09:38:02 51°21.644 2°49.539 336.8 11.8 338 25.2
2010-12-20 09:38:07 51°21.66 2°49.53 337.6 11.9 339 25.1
2010-12-20 09:38:12 51°21.675 2°49.52 336.8 12.1 337 24.9
2010-12-20 09:38:17 51°21.691 2°49.51 336.7 12.2 339 24.9
2010-12-20 09:38:22 51°21.707 2°49.5 337 12.3 338 25.2
2010-12-20 09:38:27 51°21.723 2°49.49 337.2 12.5 339 25.5
2010-12-20 09:38:32 51°21.739 2°49.48 337.4 12.5 339 25.2
2010-12-20 09:38:37 51°21.756 2°49.47 337.7 12.6 339 25.3
2010-12-20 09:38:42 51°21.772 2°49.46 337.6 12.6 339 25.4
2010-12-20 09:38:47 51°21.789 2°49.451 337.7 12.6 340 25.4
2010-12-20 09:38:52 51°21.805 2°49.441 337.6 12.6 339 25.6
2010-12-20 09:38:57 51°21.822 2°49.431 337.6 12.6 340 25.5
2010-12-20 09:39:02 51°21.838 2°49.421 337.5 12.6 339 25.9
2010-12-20 09:39:07 51°21.854 2°49.411 337.6 12.5 340 25.2
2010-12-20 09:39:12 51°21.87 2°49.401 337.6 12.5 339 25.7
2010-12-20 09:39:17 51°21.886 2°49.39 337.6 12.5 339 25.9
2010-12-20 09:39:22 51°21.902 2°49.381 337.6 12.5 339 25.7
2010-12-20 09:39:27 51°21.919 2°49.371 337.6 12.6 339 26.1
2010-12-20 09:39:32 51°21.935 2°49.362 337.9 12.6 341 25.5
2010-12-20 09:39:37 51°21.951 2°49.352 337.8 12.5 339 25.8
2010-12-20 09:39:42 51°21.968 2°49.343 337.9 12.6 341 26
2010-12-20 09:39:47 51°21.984 2°49.333 338.3 12.5 340 26.2
2010-12-20 09:39:52 51°22 2°49.324 337.9 12.3 341 26.1
2010-12-20 09:39:57 51°22.016 2°49.315 337.8 12.3 340 25.8
2010-12-20 09:40:02 51°22.032 2°49.306 337.6 12.3 340 25.9
2010-12-20 09:40:07 51°22.048 2°49.296 337.6 12.3 339 26.1
2010-12-20 09:40:12 51°22.064 2°49.287 337.1 12.2 340 25.5
2010-12-20 09:40:17 51°22.08 2°49.277 337.2 12.3 339 25.8
2010-12-20 09:40:22 51°22.096 2°49.268 337 12.1 340 25.5
2010-12-20 09:40:27 51°22.112 2°49.258 337.1 12.2 339 25.8
2010-12-20 09:40:32 51°22.128 2°49.249 337.3 12.2 340 25.9
2010-12-20 09:40:37 51°22.144 2°49.239 337.3 12.4 340 26
2010-12-20 09:40:42 51°22.16 2°49.23 337.2 12.3 340 25.6
2010-12-20 09:40:47 51°22.176 2°49.221 337.2 12.3 339 25.8
2010-12-20 09:40:52 51°22.191 2°49.211 336.9 12.2 340 25.7
2010-12-20 09:40:57 51°22.207 2°49.201 337 12.2 339 26.1
2010-12-20 09:41:02 51°22.223 2°49.192 336.9 12.2 339 25.8
2010-12-20 09:41:07 51°22.239 2°49.182 336.8 12.3 338 25
2010-12-20 09:41:12 51°22.255 2°49.172 336.6 12.3 339 24.4
2010-12-20 09:41:17 51°22.27 2°49.161 336.7 12.3 338 23.9
2010-12-20 09:41:23 51°22.289 2°49.15 336.9 12.2 339 23.4
2010-12-20 09:41:27 51°22.302 2°49.142 337.1 12.3 338 24.3
2010-12-20 09:41:32 51°22.318 2°49.133 336.9 12.3 339 25.3
2010-12-20 09:41:36 51°22.33 2°49.125 337.5 12.2 337 25.6
2010-12-20 09:41:42 51°22.349 2°49.113 336.9 12.3 339 25.4
2010-12-20 09:41:47 51°22.365 2°49.103 337.2 12.2 339 25.1
2010-12-20 09:41:52 51°22.381 2°49.093 337.4 12.1 338 25.2
2010-12-20 09:41:57 51°22.397 2°49.084 337.1 12.2 340 24.6
2010-12-20 09:42:02 51°22.412 2°49.074 337.6 12.2 339 23.6
2010-12-20 09:42:07 51°22.428 2°49.065 337.8 12.2 339 23.1
2010-12-20 09:42:12 51°22.444 2°49.055 337.2 12.2 340 22.9
2010-12-20 09:42:17 51°22.46 2°49.046 337.7 12.1 339 22.1
2010-12-20 09:42:22 51°22.476 2°49.037 337.6 12 340 21.5
2010-12-20 09:42:27 51°22.491 2°49.026 337 12.1 337 21.4
2010-12-20 09:42:32 51°22.507 2°49.017 337.9 12 341 20.7
2010-12-20 09:42:37 51°22.522 2°49.007 337.1 12 338 20.6
2010-12-20 09:42:42 51°22.538 2°48.998 337.3 12.1 340 19
2010-12-20 09:42:47 51°22.553 2°48.988 337.5 12 339 19.6
2010-12-20 09:42:52 51°22.569 2°48.978 336.9 11.9 338 21.6
2010-12-20 09:42:57 51°22.584 2°48.969 337.6 12 339 21.7
2010-12-20 09:43:02 51°22.599 2°48.958 336.6 11.9 337 20.3
2010-12-20 09:43:07 51°22.615 2°48.949 337 11.9 340 19.3
2010-12-20 09:43:12 51°22.63 2°48.939 336.9 12 337 18.3
2010-12-20 09:43:17 51°22.646 2°48.93 337.3 12.1 340 18.2
2010-12-20 09:43:22 51°22.662 2°48.919 336.8 12.1 338 18.3
2010-12-20 09:43:27 51°22.677 2°48.91 337.4 12 339 17.7
2010-12-20 09:43:32 51°22.692 2°48.9 336.8 12 337 16.6
2010-12-20 09:43:37 51°22.708 2°48.891 337.9 12 340 15.4
2010-12-20 09:43:42 51°22.723 2°48.88 336.1 12 338 17.3
2010-12-20 09:43:47 51°22.739 2°48.871 336.9 12 338 18.1
2010-12-20 09:43:52 51°22.754 2°48.861 336.4 12 337 18.1
2010-12-20 09:43:57 51°22.77 2°48.851 337.1 12.2 339 17.9
2010-12-20 09:44:02 51°22.786 2°48.841 336.8 12 340 17.5
2010-12-20 09:44:07 51°22.802 2°48.831 337.1 12.2 338 17.6
2010-12-20 09:44:12 51°22.817 2°48.821 336.6 12.2 338 16.6
2010-12-20 09:44:17 51°22.833 2°48.811 336.9 12.3 339 16.4
2010-12-20 09:44:22 51°22.848 2°48.802 337.6 12.2 339 15.7
2010-12-20 09:44:27 51°22.864 2°48.791 336.9 12.2 337 15.7
2010-12-20 09:44:32 51°22.88 2°48.783 337.1 12.1 341 16.9
2010-12-20 09:44:36 51°22.892 2°48.774 336.9 12.1 337 18.2
2010-12-20 09:44:42 51°22.911 2°48.764 337.5 12.1 341 18.4
2010-12-20 09:44:47 51°22.926 2°48.752 336.7 12.2 336 19.7
2010-12-20 09:44:52 51°22.942 2°48.744 337.7 12.1 342 19.3
2010-12-20 09:44:57 51°22.957 2°48.732 337.1 12.1 335 20
2010-12-20 09:45:02 51°22.974 2°48.724 337.6 12.2 342 20.1
2010-12-20 09:45:07 51°22.989 2°48.713 337.7 12.3 336 20.7
2010-12-20 09:45:12 51°23.005 2°48.705 338 12.2 341 20.5
2010-12-20 09:45:16 51°23.017 2°48.696 337.2 12.1 336 21.2
2010-12-20 09:45:22 51°23.037 2°48.686 337.6 12.3 341 21.3
2010-12-20 09:45:27 51°23.052 2°48.674 337.6 12.2 337 21.9
2010-12-20 09:45:32 51°23.068 2°48.666 337.9 12.1 341 22
2010-12-20 09:45:37 51°23.084 2°48.654 337 12.3 335 22.8
2010-12-20 09:45:42 51°23.1 2°48.647 338.7 12.1 342 22.5
2010-12-20 09:45:47 51°23.115 2°48.634 336.3 12.1 333 22.6
2010-12-20 09:45:52 51°23.13 2°48.625 334.9 12.2 339 22.9
2010-12-20 09:45:57 51°23.146 2°48.614 337.6 12.1 337 23.3
2010-12-20 09:46:02 51°23.162 2°48.603 335.2 12.2 336 23.5
2010-12-20 09:46:07 51°23.178 2°48.594 336.9 12.2 339 23.7
2010-12-20 09:46:12 51°23.193 2°48.581 335.4 12.2 333 24.1
2010-12-20 09:46:17 51°23.209 2°48.573 336.4 12.2 341 23.7
2010-12-20 09:46:22 51°23.224 2°48.561 336.7 12.2 335 22.7
2010-12-20 09:46:27 51°23.24 2°48.552 336 12.3 340 20.4
2010-12-20 09:46:32 51°23.256 2°48.542 337.4 12.2 339 22.2
2010-12-20 09:46:37 51°23.272 2°48.531 336.3 12.3 338 22.8
2010-12-20 09:46:42 51°23.288 2°48.522 336.9 12.3 339 23.3
2010-12-20 09:46:47 51°23.303 2°48.511 337.3 12.3 337 23.5
2010-12-20 09:46:52 51°23.32 2°48.501 337 12.4 339 24.4
2010-12-20 09:46:57 51°23.336 2°48.492 338.2 12.4 339 24.3
2010-12-20 09:47:02 51°23.352 2°48.481 336.7 12.4 337 24.2
2010-12-20 09:47:07 51°23.368 2°48.472 337.8 12.4 341 24.6
2010-12-20 09:47:12 51°23.384 2°48.461 337.7 12.4 336 24.6
2010-12-20 09:47:17 51°23.4 2°48.451 337 12.4 340 24.5
2010-12-20 09:47:22 51°23.416 2°48.441 338.1 12.4 339 24.7
2010-12-20 09:47:27 51°23.432 2°48.431 337.5 12.4 338 25.3
2010-12-20 09:47:32 51°23.448 2°48.421 337.7 12.4 340 24.9
2010-12-20 09:47:37 51°23.464 2°48.412 338.3 12.4 339 24.9
2010-12-20 09:47:42 51°23.48 2°48.402 338.1 12.4 339 24.7
2010-12-20 09:47:47 51°23.496 2°48.392 338.2 12.3 340 25
2010-12-20 09:47:52 51°23.512 2°48.382 338.2 12.4 338 24.7
2010-12-20 09:47:57 51°23.528 2°48.373 337.8 12.5 340 24.8
2010-12-20 09:48:02 51°23.544 2°48.363 338.4 12.3 339 24.1
2010-12-20 09:48:07 51°23.56 2°48.353 337.8 12.4 338 23.6
2010-12-20 09:48:12 51°23.577 2°48.343 337.6 12.5 340 24
2010-12-20 09:48:17 51°23.592 2°48.334 338.3 12.3 340 22.9
2010-12-20 09:48:22 51°23.609 2°48.324 337.9 12.4 339 22.3
2010-12-20 09:48:27 51°23.625 2°48.314 337.6 12.5 340 21.4
2010-12-20 09:48:32 51°23.641 2°48.306 337.9 12.4 341 21.4
2010-12-20 09:48:37 51°23.657 2°48.296 338.3 12.4 341 23.1
2010-12-20 09:48:42 51°23.674 2°48.287 338.2 12.6 340 23.4
2010-12-20 09:48:47 51°23.69 2°48.276 337.9 12.5 339 24.1
2010-12-20 09:48:52 51°23.706 2°48.267 337.9 12.5 340 24.2
2010-12-20 09:48:57 51°23.722 2°48.257 337.6 12.5 339 24.6
2010-12-20 09:49:02 51°23.739 2°48.247 337.3 12.5 340 24.9
2010-12-20 09:49:07 51°23.755 2°48.237 337.6 12.6 338 24.4
2010-12-20 09:49:12 51°23.771 2°48.227 337.2 12.6 339 23
2010-12-20 09:49:17 51°23.788 2°48.218 338 12.6 340 23.7
2010-12-20 09:49:22 51°23.804 2°48.207 337.7 12.6 338 24.7
2010-12-20 09:49:27 51°23.82 2°48.198 337.5 12.7 340 24.9
2010-12-20 09:49:32 51°23.837 2°48.188 337.6 12.7 338 23.7
2010-12-20 09:49:37 51°23.853 2°48.178 338 12.6 339 21.3
2010-12-20 09:49:42 51°23.869 2°48.168 337.4 12.5 340 21.2
2010-12-20 09:49:47 51°23.886 2°48.159 337.8 12.6 340 22.5
2010-12-20 09:49:52 51°23.902 2°48.15 338.3 12.5 340 22.8
2010-12-20 09:49:56 51°23.915 2°48.142 337.9 12.4 339 23.5
2010-12-20 09:50:02 51°23.934 2°48.13 337.3 12.4 340 22.8
2010-12-20 09:50:07 51°23.95 2°48.12 337.5 12.3 339 21.6
2010-12-20 09:50:12 51°23.966 2°48.111 337.1 12.4 339 20.9
2010-12-20 09:50:17 51°23.983 2°48.102 337.4 12.4 342 19.5
2010-12-20 09:50:22 51°23.998 2°48.093 337.6 12.2 340 20.5
2010-12-20 09:50:27 51°24.015 2°48.084 337.7 12.3 342 21.6
2010-12-20 09:50:32 51°24.031 2°48.074 338.2 12.4 340 22.7
2010-12-20 09:50:36 51°24.044 2°48.067 337.1 12.4 341 23.5
2010-12-20 09:50:42 51°24.063 2°48.055 337.2 12.3 339 24.1
2010-12-20 09:50:47 51°24.079 2°48.046 336.9 12.4 340 25.2
2010-12-20 09:50:52 51°24.095 2°48.036 336.9 12.4 339 25.7
2010-12-20 09:50:57 51°24.111 2°48.026 337 12.4 340 26.3
2010-12-20 09:51:02 51°24.127 2°48.016 336.9 12.4 339 26.3
2010-12-20 09:51:07 51°24.143 2°48.006 337.1 12.4 340 26.1
2010-12-20 09:51:12 51°24.159 2°47.997 337.1 12.4 339 26.4
2010-12-20 09:51:17 51°24.176 2°47.987 337.4 12.4 340 25.7
2010-12-20 09:51:22 51°24.192 2°47.978 337.6 12.5 340 25.8
2010-12-20 09:51:27 51°24.208 2°47.968 337.6 12.4 339 25
2010-12-20 09:51:32 51°24.224 2°47.958 337.5 12.3 339 24
2010-12-20 09:51:37 51°24.24 2°47.949 336.9 12.3 340 24
2010-12-20 09:51:42 51°24.256 2°47.939 337 12.4 340 24.1
2010-12-20 09:51:47 51°24.272 2°47.93 337.3 12.4 341 23.9
2010-12-20 09:51:52 51°24.288 2°47.92 337.8 12.5 339 24.7
2010-12-20 09:51:57 51°24.305 2°47.911 337.4 12.5 341 25.2
2010-12-20 09:52:02 51°24.321 2°47.901 337.6 12.5 339 25.1
2010-12-20 09:52:07 51°24.337 2°47.891 337.6 12.5 339 25.7
2010-12-20 09:52:12 51°24.353 2°47.882 337.4 12.5 339 26.3
2010-12-20 09:52:17 51°24.369 2°47.872 337.4 12.5 339 27
2010-12-20 09:52:22 51°24.386 2°47.862 337.2 12.5 340 27.1
2010-12-20 09:52:27 51°24.402 2°47.852 336.8 12.5 339 27.2
2010-12-20 09:52:32 51°24.419 2°47.842 337.3 12.5 340 28.6
2010-12-20 09:52:37 51°24.435 2°47.832 337 12.6 338 28.4
2010-12-20 09:52:42 51°24.451 2°47.822 336.5 12.7 340 28.9
2010-12-20 09:52:47 51°24.468 2°47.812 336.9 12.6 339 29
2010-12-20 09:52:52 51°24.484 2°47.802 337 12.7 339 29.2
2010-12-20 09:52:57 51°24.5 2°47.792 337.2 12.7 339 29.5
2010-12-20 09:53:02 51°24.517 2°47.781 336.9 12.7 339 30.1
2010-12-20 09:53:07 51°24.533 2°47.771 336.9 12.8 339 30.2
2010-12-20 09:53:12 51°24.55 2°47.761 337.1 12.8 339 30.1
2010-12-20 09:53:17 51°24.566 2°47.751 336.9 12.6 339 30.1
2010-12-20 09:53:22 51°24.582 2°47.741 336.9 12.7 338 31.5
2010-12-20 09:53:27 51°24.599 2°47.731 336.9 12.6 340 30.9
2010-12-20 09:53:32 51°24.615 2°47.721 337.2 12.6 339 30.4
2010-12-20 09:53:36 51°24.628 2°47.714 337.4 12.6 339 31.1
2010-12-20 09:53:42 51°24.648 2°47.702 337.2 12.6 340 31.3
2010-12-20 09:53:47 51°24.664 2°47.692 337.3 12.7 339 32
2010-12-20 09:53:52 51°24.681 2°47.682 336.9 12.7 339 32.2
2010-12-20 09:53:57 51°24.697 2°47.672 337.5 12.7 340 32.3
2010-12-20 09:54:02 51°24.713 2°47.662 337.3 12.7 339 32.4
2010-12-20 09:54:07 51°24.73 2°47.652 337.2 12.8 340 32.1
2010-12-20 09:54:12 51°24.747 2°47.642 337.4 12.8 339 32.1
2010-12-20 09:54:17 51°24.763 2°47.632 337.4 12.7 339 32.8
2010-12-20 09:54:22 51°24.78 2°47.622 337.6 12.8 339 33.2
2010-12-20 09:54:27 51°24.796 2°47.612 337.6 12.8 339 33.2
2010-12-20 09:54:32 51°24.813 2°47.602 337.1 12.8 339 33
2010-12-20 09:54:37 51°24.829 2°47.592 336.8 12.8 339 33.4
2010-12-20 09:54:42 51°24.846 2°47.581 336.8 12.7 338 33.5
2010-12-20 09:54:47 51°24.862 2°47.571 336.4 12.8 338 34
2010-12-20 09:54:52 51°24.879 2°47.559 335.6 12.7 337 33.7
2010-12-20 09:54:57 51°24.895 2°47.548 334.2 12.7 337 34.1
2010-12-20 09:55:02 51°24.911 2°47.536 333.8 12.8 335 33.6
2010-12-20 09:55:07 51°24.927 2°47.524 333.2 12.8 334 33.5
2010-12-20 09:55:12 51°24.943 2°47.511 331.8 12.7 334 33.5
2010-12-20 09:55:16 51°24.955 2°47.501 330.7 12.8 333 33.3
2010-12-20 09:55:22 51°24.974 2°47.485 330.1 12.8 332 32.3
2010-12-20 09:55:27 51°24.99 2°47.471 329.6 12.8 332 31.8
2010-12-20 09:55:32 51°25.005 2°47.458 329 12.8 333 31.6
2010-12-20 09:55:37 51°25.021 2°47.444 328.9 12.8 331 31.5
2010-12-20 09:55:42 51°25.036 2°47.431 328.4 12.8 332 31
2010-12-20 09:55:47 51°25.052 2°47.417 328.9 12.7 331 30.5
2010-12-20 09:55:52 51°25.067 2°47.403 328.8 12.6 331 30.3
2010-12-20 09:55:56 51°25.08 2°47.393 328.9 12.7 332 29.3
2010-12-20 09:56:02 51°25.098 2°47.377 328.5 12.7 332 29.4
2010-12-20 09:56:07 51°25.114 2°47.363 328.7 12.7 331 28.8
2010-12-20 09:56:12 51°25.129 2°47.35 328.3 12.7 332 28
2010-12-20 09:56:17 51°25.145 2°47.336 328.7 12.7 331 27.7
2010-12-20 09:56:22 51°25.16 2°47.323 328.6 12.6 332 27.5
2010-12-20 09:56:27 51°25.175 2°47.309 328.6 12.6 331 27.8
2010-12-20 09:56:32 51°25.19 2°47.296 328.9 12.5 331 26.8
2010-12-20 09:56:36 51°25.202 2°47.286 328.9 12.3 333 27.4
2010-12-20 09:56:42 51°25.22 2°47.27 328.6 12.4 331 27.7
2010-12-20 09:56:47 51°25.235 2°47.257 328.7 12.2 331 27.3
2010-12-20 09:56:52 51°25.25 2°47.245 328.4 12.2 333 27.4
2010-12-20 09:56:57 51°25.265 2°47.231 328.7 12.2 331 27.4
2010-12-20 09:57:02 51°25.28 2°47.219 328.9 12.3 332 27.6
2010-12-20 09:57:07 51°25.295 2°47.206 329.2 12.2 332 27.2